createdAt,value
2018-02-19T00:00:35.817Z,3.56
2018-02-19T00:03:10.656Z,3.54
2018-02-19T00:05:45.879Z,3.55
2018-02-19T00:08:20.887Z,3.56
2018-02-19T00:10:56.043Z,3.58
2018-02-19T00:13:30.819Z,3.58
2018-02-19T00:16:05.878Z,3.58
2018-02-19T00:18:40.955Z,3.56
2018-02-19T00:21:16.031Z,3.54
2018-02-19T00:23:51.031Z,3.50
2018-02-19T00:26:25.859Z,3.48
2018-02-19T00:29:00.835Z,3.47
2018-02-19T00:31:35.863Z,3.46
2018-02-19T00:34:10.897Z,3.41
2018-02-19T00:36:45.955Z,3.37
2018-02-19T00:39:20.887Z,3.33
2018-02-19T00:41:56.331Z,3.31
2018-02-19T00:44:31.100Z,3.31
2018-02-19T00:47:06.169Z,3.29
2018-02-19T00:49:41.252Z,3.31
2018-02-19T00:52:16.827Z,3.19
2018-02-19T00:54:53.352Z,3.08
2018-02-19T00:57:28.211Z,3.02
2018-02-19T01:00:03.056Z,3.00
2018-02-19T01:02:38.428Z,3.02
2018-02-19T01:05:13.572Z,3.05
2018-02-19T01:07:48.896Z,3.05
2018-02-19T01:10:24.021Z,3.02
2018-02-19T01:12:59.259Z,2.97
2018-02-19T01:15:34.332Z,2.91
2018-02-19T01:18:09.491Z,2.90
2018-02-19T01:20:44.340Z,2.89
2018-02-19T01:23:19.525Z,2.88
2018-02-19T01:25:54.519Z,2.92
2018-02-19T01:28:29.346Z,2.94
2018-02-19T01:31:04.311Z,2.95
2018-02-19T01:33:39.239Z,2.99
2018-02-19T01:36:14.412Z,2.99
2018-02-19T01:38:49.516Z,3.01
2018-02-19T01:41:24.571Z,3.01
2018-02-19T01:44:00.142Z,3.02
2018-02-19T01:46:35.088Z,2.99
2018-02-19T01:49:10.086Z,2.96
2018-02-19T01:51:45.083Z,2.97
2018-02-19T01:54:20.372Z,2.92
2018-02-19T01:56:55.370Z,2.88
2018-02-19T01:59:31.087Z,2.85
2018-02-19T02:02:06.028Z,2.87
2018-02-19T02:04:40.432Z,2.85
2018-02-19T02:07:15.984Z,2.88
2018-02-19T02:09:51.103Z,2.91
2018-02-19T02:12:26.119Z,2.96
2018-02-19T02:15:01.087Z,2.96
2018-02-19T02:17:35.455Z,2.91
2018-02-19T02:20:10.427Z,2.88
2018-02-19T02:22:45.308Z,2.87
2018-02-19T02:25:20.258Z,2.84
2018-02-19T02:27:55.528Z,2.79
2018-02-19T02:30:30.192Z,2.79
2018-02-19T02:33:05.550Z,2.78
2018-02-19T02:35:40.620Z,2.78
2018-02-19T02:38:15.275Z,2.76
2018-02-19T02:40:50.115Z,2.71
2018-02-19T02:43:25.279Z,2.70
2018-02-19T02:46:00.542Z,2.72
2018-02-19T02:48:35.170Z,2.75
2018-02-19T02:51:10.607Z,2.74
2018-02-19T02:53:45.302Z,2.73
2018-02-19T02:56:20.223Z,2.70
2018-02-19T02:58:55.739Z,2.70
2018-02-19T03:01:30.785Z,2.67
2018-02-19T03:04:05.634Z,2.70
2018-02-19T03:06:40.657Z,2.71
2018-02-19T03:09:15.492Z,2.64
2018-02-19T03:11:50.563Z,2.58
2018-02-19T03:14:25.494Z,2.59
2018-02-19T03:17:00.536Z,2.54
2018-02-19T03:19:35.527Z,2.52
2018-02-19T03:22:10.800Z,2.51
2018-02-19T03:24:45.763Z,2.51
2018-02-19T03:27:20.904Z,2.56
2018-02-19T03:29:56.340Z,2.59
2018-02-19T03:32:31.174Z,2.71
2018-02-19T03:35:06.420Z,2.73
2018-02-19T03:37:41.277Z,2.73
2018-02-19T03:40:16.314Z,2.74
2018-02-19T03:42:51.395Z,2.82
2018-02-19T03:45:26.459Z,2.88
2018-02-19T03:48:01.656Z,2.83
2018-02-19T03:50:36.528Z,2.83
2018-02-19T03:53:11.635Z,2.78
2018-02-19T03:55:46.615Z,2.80
2018-02-19T03:58:21.859Z,2.69
2018-02-19T04:00:56.692Z,2.66
2018-02-19T04:03:31.543Z,2.64
2018-02-19T04:06:06.807Z,2.66
2018-02-19T04:08:41.535Z,2.68
2018-02-19T04:11:16.544Z,2.66
2018-02-19T04:13:51.422Z,2.64
2018-02-19T04:16:26.355Z,2.68
2018-02-19T04:19:01.658Z,2.68
2018-02-19T04:21:37.560Z,2.63
2018-02-19T04:24:12.600Z,2.62
2018-02-19T04:26:47.376Z,2.64
2018-02-19T04:29:22.547Z,2.65
2018-02-19T04:31:57.666Z,2.70
2018-02-19T04:34:32.451Z,2.72
2018-02-19T04:37:07.405Z,2.74
2018-02-19T04:39:42.447Z,2.84
2018-02-19T04:42:17.641Z,2.90
2018-02-19T04:44:53.611Z,2.99
2018-02-19T04:47:28.063Z,3.01
2018-02-19T04:50:03.003Z,3.11
2018-02-19T04:52:38.507Z,3.06
2018-02-19T04:55:13.523Z,3.05
2018-02-19T04:57:48.483Z,3.04
2018-02-19T05:00:23.492Z,2.98
2018-02-19T05:02:57.694Z,3.01
2018-02-19T05:05:32.466Z,3.03
2018-02-19T05:08:07.743Z,3.06
2018-02-19T05:10:42.607Z,3.07
2018-02-19T05:13:17.744Z,3.13
2018-02-19T05:15:53.923Z,3.09
2018-02-19T05:18:28.491Z,3.02
2018-02-19T05:21:03.768Z,2.95
2018-02-19T05:23:38.857Z,2.85
2018-02-19T05:26:13.975Z,2.73
2018-02-19T05:28:49.651Z,2.71
2018-02-19T05:31:24.553Z,2.72
2018-02-19T05:33:59.827Z,2.75
2018-02-19T05:36:34.653Z,2.77
2018-02-19T05:39:09.820Z,2.77
2018-02-19T05:41:44.920Z,2.76
2018-02-19T05:44:19.807Z,2.79
2018-02-19T05:46:54.855Z,2.78
2018-02-19T05:49:29.522Z,2.74
2018-02-19T05:52:04.755Z,2.79
2018-02-19T05:54:39.580Z,2.84
2018-02-19T05:57:14.821Z,2.91
2018-02-19T05:59:49.971Z,2.90
2018-02-19T06:02:24.954Z,2.87
2018-02-19T06:04:59.950Z,2.82
2018-02-19T06:07:34.799Z,2.82
2018-02-19T06:10:09.925Z,2.82
2018-02-19T06:12:44.659Z,2.86
2018-02-19T06:15:19.767Z,2.83
2018-02-19T06:17:54.732Z,2.82
2018-02-19T06:20:29.687Z,2.82
2018-02-19T06:23:04.747Z,2.82
2018-02-19T06:25:39.779Z,2.80
2018-02-19T06:28:14.730Z,2.77
2018-02-19T06:30:49.587Z,2.80
2018-02-19T06:33:24.188Z,2.83
2018-02-19T06:35:59.150Z,2.86
2018-02-19T06:38:34.036Z,2.88
2018-02-19T06:41:09.352Z,2.92
2018-02-19T06:43:43.915Z,2.91
2018-02-19T06:46:18.871Z,2.87
2018-02-19T06:48:54.223Z,2.85
2018-02-19T06:51:29.467Z,2.84
2018-02-19T06:54:04.507Z,2.84
2018-02-19T06:56:39.807Z,3.00
2018-02-19T06:59:14.796Z,3.18
2018-02-19T07:01:49.993Z,3.34
2018-02-19T07:04:24.892Z,3.37
2018-02-19T07:06:59.955Z,3.25
2018-02-19T07:09:34.844Z,3.14
2018-02-19T07:12:09.798Z,3.19
2018-02-19T07:14:45.863Z,3.19
2018-02-19T07:17:20.759Z,3.23
2018-02-19T07:19:56.124Z,3.23
2018-02-19T07:22:31.158Z,3.22
2018-02-19T07:25:06.362Z,3.34
2018-02-19T07:27:41.879Z,3.48
2018-02-19T07:30:16.855Z,3.64
2018-02-19T07:32:51.684Z,3.77
2018-02-19T07:35:26.840Z,3.91
2018-02-19T07:38:02.008Z,4.00
2018-02-19T07:40:36.968Z,4.06
2018-02-19T07:43:12.008Z,4.07
2018-02-19T07:45:46.991Z,4.07
2018-02-19T07:48:21.947Z,4.07
2018-02-19T07:50:57.128Z,4.10
2018-02-19T07:53:31.768Z,4.12
2018-02-19T07:56:07.176Z,4.11
2018-02-19T07:58:42.208Z,4.13
2018-02-19T08:01:17.084Z,4.11
2018-02-19T08:03:52.092Z,4.08
2018-02-19T08:06:26.987Z,4.06
2018-02-19T08:09:01.870Z,4.07
2018-02-19T08:11:36.817Z,4.12
2018-02-19T08:14:12.032Z,4.16
2018-02-19T08:16:47.007Z,4.24
2018-02-19T08:19:21.975Z,4.35
2018-02-19T08:21:57.052Z,4.33
2018-02-19T08:24:32.054Z,4.32
2018-02-19T08:27:07.247Z,4.36
2018-02-19T08:29:41.961Z,4.43
2018-02-19T08:32:17.084Z,4.44
2018-02-19T08:34:51.827Z,4.54
2018-02-19T08:37:27.015Z,4.59
2018-02-19T08:40:02.272Z,4.61
2018-02-19T08:42:37.619Z,4.63
2018-02-19T08:45:12.633Z,4.67
2018-02-19T08:47:47.991Z,4.68
2018-02-19T08:50:23.027Z,4.76
2018-02-19T08:52:58.297Z,4.73
2018-02-19T08:55:33.014Z,4.58
2018-02-19T08:58:08.167Z,4.50
2018-02-19T09:00:43.087Z,4.31
2018-02-19T09:03:18.124Z,4.28
2018-02-19T09:05:54.076Z,4.37
2018-02-19T09:08:29.040Z,4.49
2018-02-19T09:11:04.020Z,4.63
2018-02-19T09:13:39.059Z,4.75
2018-02-19T09:16:14.149Z,4.86
2018-02-19T09:18:48.905Z,4.99
2018-02-19T09:21:23.515Z,5.10
2018-02-19T09:23:58.251Z,5.24
2018-02-19T09:26:33.210Z,5.36
2018-02-19T09:29:08.359Z,5.44
2018-02-19T09:31:43.004Z,5.47
2018-02-19T09:34:18.103Z,5.44
2018-02-19T09:36:54.387Z,5.40
2018-02-19T09:39:29.265Z,5.44
2018-02-19T09:42:04.251Z,5.41
2018-02-19T09:44:39.260Z,5.55
2018-02-19T09:47:14.295Z,5.73
2018-02-19T09:49:49.547Z,5.94
2018-02-19T09:52:24.596Z,6.06
2018-02-19T09:54:59.680Z,6.26
2018-02-19T09:57:34.176Z,6.33
2018-02-19T10:00:08.827Z,6.21
2018-02-19T10:02:43.483Z,6.09
2018-02-19T10:05:18.250Z,5.98
2018-02-19T10:07:54.487Z,6.10
2018-02-19T10:10:29.424Z,6.31
2018-02-19T10:13:05.007Z,6.72
2018-02-19T10:15:40.101Z,7.08
2018-02-19T10:18:15.250Z,7.27
2018-02-19T10:20:50.291Z,7.55
2018-02-19T10:23:24.795Z,7.72
2018-02-19T10:26:00.032Z,7.77
2018-02-19T10:28:36.644Z,7.70
2018-02-19T10:31:12.607Z,7.72
2018-02-19T10:33:47.655Z,7.84
2018-02-19T10:36:23.100Z,7.93
2018-02-19T10:38:58.191Z,8.25
2018-02-19T10:41:33.319Z,8.54
2018-02-19T10:44:08.334Z,8.65
2018-02-19T10:46:43.376Z,8.74
2018-02-19T10:49:18.419Z,8.85
2018-02-19T10:51:54.603Z,8.85
2018-02-19T10:54:29.724Z,8.89
2018-02-19T10:57:04.555Z,8.94
2018-02-19T10:59:39.683Z,8.75
2018-02-19T11:02:14.843Z,8.71
2018-02-19T11:04:49.403Z,8.71
2018-02-19T11:07:24.404Z,8.62
2018-02-19T11:09:59.491Z,8.61
2018-02-19T11:12:34.388Z,8.63
2018-02-19T11:15:09.656Z,8.76
2018-02-19T11:17:44.499Z,8.78
2018-02-19T11:20:19.655Z,8.73
2018-02-19T11:22:54.632Z,8.34
2018-02-19T11:25:29.699Z,8.06
2018-02-19T11:28:04.828Z,8.13
2018-02-19T11:30:39.887Z,8.19
2018-02-19T11:33:14.966Z,8.19
2018-02-19T11:35:50.378Z,8.18
2018-02-19T11:38:25.228Z,8.23
2018-02-19T11:41:00.372Z,8.13
2018-02-19T11:43:35.399Z,8.04
2018-02-19T11:46:10.628Z,8.05
2018-02-19T11:48:45.479Z,8.16
2018-02-19T11:51:20.404Z,8.04
2018-02-19T11:53:55.708Z,8.02
2018-02-19T11:56:30.686Z,8.15
2018-02-19T11:59:05.931Z,8.05
2018-02-19T12:01:40.946Z,8.06
2018-02-19T12:04:16.399Z,8.09
2018-02-19T12:06:51.371Z,8.26
2018-02-19T12:09:26.348Z,8.32
2018-02-19T12:12:01.478Z,8.46
2018-02-19T12:14:36.501Z,8.78
2018-02-19T12:17:11.648Z,8.97
2018-02-19T12:19:46.548Z,9.09
2018-02-19T12:22:21.578Z,9.19
2018-02-19T12:24:56.771Z,9.33
2018-02-19T12:27:31.627Z,9.41
2018-02-19T12:30:06.871Z,9.45
2018-02-19T12:32:41.719Z,9.36
2018-02-19T12:35:16.965Z,9.39
2018-02-19T12:37:52.047Z,9.72
2018-02-19T12:40:26.664Z,10.05
2018-02-19T12:43:01.811Z,10.38
2018-02-19T12:45:36.707Z,10.56
2018-02-19T12:48:11.987Z,10.53
2018-02-19T12:50:46.711Z,10.53
2018-02-19T12:53:21.711Z,10.71
2018-02-19T12:55:56.940Z,11.02
2018-02-19T12:58:31.991Z,11.21
2018-02-19T13:01:07.647Z,11.36
2018-02-19T13:03:42.075Z,11.65
2018-02-19T13:06:17.605Z,11.84
2018-02-19T13:08:52.654Z,11.89
2018-02-19T13:11:27.748Z,12.10
2018-02-19T13:14:02.992Z,12.12
2018-02-19T13:16:38.018Z,12.16
2018-02-19T13:19:13.052Z,12.03
2018-02-19T13:21:47.975Z,11.78
2018-02-19T13:24:22.962Z,11.66
2018-02-19T13:26:58.243Z,11.69
2018-02-19T13:29:33.108Z,11.78
2018-02-19T13:32:07.899Z,12.16
2018-02-19T13:34:43.632Z,12.40
2018-02-19T13:37:18.568Z,12.41
2018-02-19T13:39:54.179Z,12.25
2018-02-19T13:42:28.983Z,12.22
2018-02-19T13:45:03.859Z,12.16
2018-02-19T13:47:39.055Z,12.23
2018-02-19T13:50:13.907Z,12.29
2018-02-19T13:52:48.940Z,11.94
2018-02-19T13:55:23.987Z,11.43
2018-02-19T13:57:59.019Z,11.07
2018-02-19T14:00:34.100Z,11.13
2018-02-19T14:03:09.004Z,11.31
2018-02-19T14:05:43.936Z,11.61
2018-02-19T14:08:19.585Z,12.04
2018-02-19T14:10:55.067Z,12.29
2018-02-19T14:13:30.155Z,12.34
2018-02-19T14:16:05.135Z,12.31
2018-02-19T14:18:39.799Z,12.16
2018-02-19T14:21:15.254Z,12.02
2018-02-19T14:23:49.975Z,11.98
2018-02-19T14:26:24.719Z,12.04
2018-02-19T14:28:59.807Z,12.06
2018-02-19T14:31:34.851Z,12.25
2018-02-19T14:34:10.067Z,12.42
2018-02-19T14:36:45.167Z,12.42
2018-02-19T14:39:20.214Z,12.44
2018-02-19T14:41:55.320Z,12.33
2018-02-19T14:44:29.967Z,12.27
2018-02-19T14:47:04.547Z,12.29
2018-02-19T14:49:39.976Z,12.26
2018-02-19T14:52:15.220Z,12.15
2018-02-19T14:54:50.540Z,12.00
2018-02-19T14:57:25.411Z,11.85
2018-02-19T15:00:02.256Z,11.81
2018-02-19T15:02:36.925Z,11.57
2018-02-19T15:05:12.200Z,11.20
2018-02-19T15:07:47.563Z,10.98
2018-02-19T15:10:22.243Z,10.85
2018-02-19T15:12:57.220Z,10.89
2018-02-19T15:15:32.094Z,10.97
2018-02-19T15:18:07.044Z,10.97
2018-02-19T15:20:42.087Z,10.93
2018-02-19T15:23:17.248Z,10.88
2018-02-19T15:25:52.479Z,10.75
2018-02-19T15:28:27.328Z,10.61
2018-02-19T15:31:02.719Z,10.43
2018-02-19T15:33:37.488Z,10.29
2018-02-19T15:36:12.984Z,10.13
2018-02-19T15:38:48.119Z,10.04
2018-02-19T15:41:22.995Z,9.88
2018-02-19T15:43:58.312Z,9.78
2018-02-19T15:46:33.359Z,9.84
2018-02-19T15:49:08.335Z,9.82
2018-02-19T15:51:43.287Z,9.77
2018-02-19T15:54:18.039Z,9.68
2018-02-19T15:56:53.195Z,9.55
2018-02-19T15:59:28.199Z,9.43
2018-02-19T16:02:03.003Z,9.33
2018-02-19T16:04:38.267Z,9.25
2018-02-19T16:07:13.546Z,9.11
2018-02-19T16:09:49.081Z,8.92
2018-02-19T16:12:24.088Z,8.74
2018-02-19T16:14:59.396Z,8.59
2018-02-19T16:17:34.171Z,8.43
2018-02-19T16:20:09.403Z,8.28
2018-02-19T16:22:43.740Z,8.15
2018-02-19T16:25:18.744Z,8.03
2018-02-19T16:27:55.250Z,7.92
2018-02-19T16:30:30.095Z,7.86
2018-02-19T16:33:05.279Z,7.78
2018-02-19T16:35:40.233Z,7.62
2018-02-19T16:38:15.160Z,7.50
2018-02-19T16:40:50.262Z,7.45
2018-02-19T16:43:25.539Z,7.42
2018-02-19T16:46:00.180Z,7.41
2018-02-19T16:48:35.144Z,7.33
2018-02-19T16:51:10.426Z,7.22
2018-02-19T16:53:45.192Z,7.11
2018-02-19T16:56:20.199Z,7.04
2018-02-19T16:58:55.595Z,6.99
2018-02-19T17:01:30.284Z,6.94
2018-02-19T17:04:05.155Z,6.80
2018-02-19T17:06:39.884Z,6.68
2018-02-19T17:09:14.019Z,6.61
2018-02-19T17:11:49.221Z,6.55
2018-02-19T17:14:24.257Z,6.47
2018-02-19T17:16:59.519Z,6.42
2018-02-19T17:19:34.611Z,6.33
2018-02-19T17:22:09.623Z,6.32
2018-02-19T17:24:44.787Z,6.33
2018-02-19T17:27:20.280Z,6.30
2018-02-19T17:29:55.681Z,6.21
2018-02-19T17:32:30.387Z,6.08
2018-02-19T17:35:04.935Z,6.01
2018-02-19T17:37:40.264Z,5.96
2018-02-19T17:40:15.267Z,5.92
2018-02-19T17:42:50.440Z,5.87
2018-02-19T17:45:25.344Z,5.81
2018-02-19T17:48:00.363Z,5.74
2018-02-19T17:50:35.357Z,5.69
2018-02-19T17:53:10.477Z,5.66
2018-02-19T17:55:45.420Z,5.63
2018-02-19T17:58:20.428Z,5.61
2018-02-19T18:00:55.719Z,5.61
2018-02-19T18:03:31.239Z,5.61
2018-02-19T18:06:05.827Z,5.59
2018-02-19T18:08:41.268Z,5.58
2018-02-19T18:11:16.274Z,5.57
2018-02-19T18:13:51.299Z,5.51
2018-02-19T18:16:25.839Z,5.49
2018-02-19T18:19:01.120Z,5.41
2018-02-19T18:21:35.892Z,5.31
2018-02-19T18:24:10.828Z,5.18
2018-02-19T18:26:45.789Z,5.08
2018-02-19T18:29:21.404Z,4.98
2018-02-19T18:31:56.504Z,4.89
2018-02-19T18:34:31.583Z,4.81
2018-02-19T18:37:06.723Z,4.75
2018-02-19T18:39:41.711Z,4.71
2018-02-19T18:42:16.232Z,4.66
2018-02-19T18:44:51.676Z,4.69
2018-02-19T18:47:26.720Z,4.71
2018-02-19T18:50:01.859Z,4.71
2018-02-19T18:52:36.765Z,4.71
2018-02-19T18:55:12.044Z,4.68
2018-02-19T18:57:46.875Z,4.62
2018-02-19T19:00:21.896Z,4.52
2018-02-19T19:05:28.140Z,4.24
2018-02-19T19:08:14.073Z,4.08
2018-02-19T19:10:52.559Z,3.94
2018-02-19T19:13:26.867Z,3.90
2018-02-19T19:16:01.989Z,3.84
2018-02-19T19:18:37.564Z,3.83
2018-02-19T19:21:12.847Z,3.86
2018-02-19T19:23:47.986Z,3.84
2018-02-19T19:26:23.208Z,3.84
2018-02-19T19:28:58.747Z,3.83
2018-02-19T19:31:34.025Z,3.82
2018-02-19T19:34:08.862Z,3.81
2018-02-19T19:36:43.708Z,3.81
2018-02-19T19:39:18.374Z,3.78
2018-02-19T19:41:52.748Z,3.69
2018-02-19T19:44:27.724Z,3.62
2018-02-19T19:47:03.184Z,3.55
2018-02-19T19:49:37.935Z,3.47
2018-02-19T19:52:13.204Z,3.41
2018-02-19T19:54:47.831Z,3.36
2018-02-19T19:57:23.013Z,3.35
2018-02-19T19:59:58.123Z,3.32
2018-02-19T20:02:32.980Z,3.23
2018-02-19T20:05:08.319Z,3.20
2018-02-19T20:07:43.721Z,3.15
2018-02-19T20:10:18.287Z,3.12
2018-02-19T20:12:53.390Z,3.09
2018-02-19T20:15:28.864Z,3.10
2018-02-19T20:18:03.264Z,3.11
2018-02-19T20:20:38.107Z,3.07
2018-02-19T20:23:13.344Z,3.04
2018-02-19T20:25:48.494Z,3.00
2018-02-19T20:28:23.128Z,2.95
2018-02-19T20:30:58.295Z,2.88
2018-02-19T20:33:33.464Z,2.79
2018-02-19T20:36:09.004Z,2.74
2018-02-19T20:38:43.843Z,2.73
2018-02-19T20:41:19.003Z,2.75
2018-02-19T20:43:54.374Z,2.74
2018-02-19T20:46:29.132Z,2.70
2018-02-19T20:49:03.903Z,2.64
2018-02-19T20:51:39.041Z,2.55
2018-02-19T20:54:13.934Z,2.33
2018-02-19T20:56:48.994Z,2.21
2018-02-19T20:59:24.084Z,2.19
2018-02-19T21:01:59.255Z,2.18
2018-02-19T21:04:34.091Z,2.15
2018-02-19T21:07:09.536Z,2.12
2018-02-19T21:09:44.272Z,2.11
2018-02-19T21:12:19.448Z,2.09
2018-02-19T21:14:54.633Z,2.07
2018-02-19T21:17:29.653Z,2.07
2018-02-19T21:20:04.488Z,2.07
2018-02-19T21:22:39.860Z,2.04
2018-02-19T21:25:15.036Z,2.06
2018-02-19T21:27:50.200Z,2.09
2018-02-19T21:30:24.638Z,2.06
2018-02-19T21:32:59.599Z,2.04
2018-02-19T21:35:35.079Z,2.01
2018-02-19T21:38:10.330Z,2.02
2018-02-19T21:40:45.211Z,2.03
2018-02-19T21:43:20.384Z,2.04
2018-02-19T21:45:56.417Z,2.04
2018-02-19T21:48:31.956Z,2.04
2018-02-19T21:51:07.555Z,2.02
2018-02-19T21:53:43.126Z,2.02
2018-02-19T21:56:18.203Z,2.02
2018-02-19T21:58:53.277Z,2.02
2018-02-19T22:01:28.367Z,1.98
2018-02-19T22:04:03.532Z,1.97
2018-02-19T22:06:47.947Z,1.97
2018-02-19T22:09:22.959Z,1.99
2018-02-19T22:11:58.406Z,2.00
2018-02-19T22:14:33.433Z,2.01
2018-02-19T22:17:08.672Z,2.03
2018-02-19T22:19:43.722Z,2.08
2018-02-19T22:22:18.495Z,2.10
2018-02-19T22:24:53.456Z,2.08
2018-02-19T22:27:28.203Z,2.09
2018-02-19T22:30:03.526Z,2.11
2018-02-19T22:32:38.432Z,2.15
2018-02-19T22:35:12.432Z,2.19
2018-02-19T22:37:47.695Z,2.20
2018-02-19T22:40:22.415Z,2.24
2018-02-19T22:43:06.224Z,2.28
2018-02-19T22:45:41.232Z,2.29
2018-02-19T22:48:16.844Z,2.31
2018-02-19T22:50:51.575Z,2.27
2018-02-19T22:53:26.750Z,2.28
2018-02-19T22:56:02.188Z,2.29
2018-02-19T22:58:37.393Z,2.32
2018-02-19T23:01:12.632Z,2.31
2018-02-19T23:03:47.567Z,2.30
2018-02-19T23:06:23.119Z,2.28
2018-02-19T23:08:58.260Z,2.30
2018-02-19T23:11:33.488Z,2.34
2018-02-19T23:14:08.383Z,2.41
2018-02-19T23:16:43.123Z,2.44
2018-02-19T23:19:18.324Z,2.44
2018-02-19T23:21:53.434Z,2.40
2018-02-19T23:24:28.387Z,2.35
2018-02-19T23:27:02.767Z,2.29
2018-02-19T23:29:37.532Z,2.19
2018-02-19T23:32:12.796Z,2.09
2018-02-19T23:34:47.423Z,2.03
2018-02-19T23:37:22.382Z,2.05
2018-02-19T23:39:56.799Z,2.04
2018-02-19T23:42:31.362Z,2.00
2018-02-19T23:45:06.601Z,1.94
2018-02-19T23:47:41.357Z,1.90
2018-02-19T23:50:16.349Z,1.88
2018-02-19T23:52:51.806Z,1.83
2018-02-19T23:55:27.417Z,1.75
2018-02-19T23:58:02.489Z,1.71
